Estación de El Carmen

Ultimos registro cada 15 minutos 71
Estación Fecha / Hora Temperatura Humedad Lluvia Velocidad Dirección Radiación Presion
71 El Carmen 06-09-2026 18:30 19,9 46,3 0 1,5 143 124,4 969,7
70 El Carmen 06-09-2026 18:15 19,9 46,5 0 1,5 135 125,6 969,7
69 El Carmen 06-09-2026 18:00 20,6 45,2 0 1,5 153 26,9 969,6
68 El Carmen 06-09-2026 17:45 21,2 42,6 0 1 160 220,6 969,5
67 El Carmen 06-09-2026 17:30 21,6 42,7 0 1 153 29,4 969,5
66 El Carmen 06-09-2026 17:15 21,4 42,2 0 1 174 321,9 969,5
65 El Carmen 06-09-2026 17:00 22,8 42,3 0 0 243 359,4 969,4
64 El Carmen 06-09-2026 16:45 22,5 40,2 0 0 265 390,6 969,3
63 El Carmen 06-09-2026 16:30 22,3 40,7 0 0 219 424,4 969,3
62 El Carmen 06-09-2026 16:15 22,4 41,4 0 0 213 454,4 969,4
61 El Carmen 06-09-2026 16:00 22,1 41,1 0 0 177 484,4 969,5
60 El Carmen 06-09-2026 15:45 21,7 41,2 0 0 190 509,4 969,5
59 El Carmen 06-09-2026 15:30 21,6 40,6 0 0 227 533,1 969,6
58 El Carmen 06-09-2026 15:15 22,1 43,2 0 0 216 556,9 969,5
57 El Carmen 06-09-2026 15:00 21,4 42,6 0 0 284 573,1 969,7
56 El Carmen 06-09-2026 14:45 20,7 43,8 0 0 187 584,4 969,9
55 El Carmen 06-09-2026 14:30 20,4 45,2 0 0 218 598,1 970
54 El Carmen 06-09-2026 14:15 20,1 44,3 0 0 240 605,6 970,1
53 El Carmen 06-09-2026 14:00 18,9 43,2 0 0 167 611,9 970,2
52 El Carmen 06-09-2026 13:45 19,3 47,1 0 0 83 610,6 970,2
51 El Carmen 06-09-2026 13:30 18,4 47,1 0 0 138 609,4 970,5
50 El Carmen 06-09-2026 13:15 18,2 48,7 0 0 199 605,6 970,6
49 El Carmen 06-09-2026 13:00 17,3 51,3 0 0 199 599,4 970,5
48 El Carmen 06-09-2026 12:45 17,1 51,6 0 0 167 586,9 970,8
47 El Carmen 06-09-2026 12:30 16,6 49,3 0 0 160 573,1 970,8
46 El Carmen 06-09-2026 12:15 16 50,2 0 0 129 555,6 970,9
45 El Carmen 06-09-2026 12:00 15,4 53,4 0 0 135 535,6 970,9
44 El Carmen 06-09-2026 11:45 14,6 56,9 0 0 135 513,1 970,9
43 El Carmen 06-09-2026 11:30 13,3 60,2 0 1 139 484,4 970,9
42 El Carmen 06-09-2026 11:15 12,6 65,1 0 1,5 145 455,6 970,9
41 El Carmen 06-09-2026 11:00 11,6 67,7 0 1,5 136 424,4 970,9
40 El Carmen 06-09-2026 10:45 10,9 68,4 0 2 128 390,6 970,9
39 El Carmen 06-09-2026 10:30 10,5 71,8 0 2 132 355,6 970,9
38 El Carmen 06-09-2026 10:15 10 73,8 0 2 128 318,1 970,9
37 El Carmen 06-09-2026 10:00 9,6 74 0 2 129 279,4 970,9
36 El Carmen 06-09-2026 09:45 9,5 77,3 0 1 119 25,6 970,8
35 El Carmen 06-09-2026 09:30 8,5 80,8 0 1 117 198,1 970,6
34 El Carmen 06-09-2026 09:15 8 81,8 0 0,5 115 159,4 970,7
33 El Carmen 06-09-2026 09:00 6,1 84,4 0 0 118 41,9 970,5
32 El Carmen 06-09-2026 08:45 3,7 89,1 0 0 115 66,9 970,4
31 El Carmen 06-09-2026 08:30 2,9 90,1 0 0 115 14,4 970,3
30 El Carmen 06-09-2026 08:15 1,5 91,8 0 0 115 6,9 970,4
29 El Carmen 06-09-2026 08:00 1,6 90,6 0 0 115 3,1 970,4
28 El Carmen 06-09-2026 07:45 1,7 89,9 0 0 115 0,6 970,4
27 El Carmen 06-09-2026 07:30 1,3 90,3 0 0 115 0,6 970,2
26 El Carmen 06-09-2026 07:15 2,2 88,3 0 0 115 0,6 970,1
25 El Carmen 06-09-2026 07:00 2,2 89,4 0 0 115 0,6 970,2
24 El Carmen 06-09-2026 06:45 1,7 92,5 0 0 115 0,6 970,1
23 El Carmen 06-09-2026 06:30 0,7 93,3 0 0 115 0,6 970
22 El Carmen 06-09-2026 06:15 0,4 92,9 0 0 115 0,6 970
21 El Carmen 06-09-2026 06:00 0,7 93,3 0 0 115 0,6 969,9
20 El Carmen 06-09-2026 05:45 0,5 92,7 0 0 115 0,6 969,9
19 El Carmen 06-09-2026 05:30 1,3 92,6 0 0 115 0,6 969,9
18 El Carmen 06-09-2026 05:15 1,1 93,2 0 0 115 0,6 970,1
17 El Carmen 06-09-2026 05:00 0,7 92,8 0 0 115 0,6 970,2
16 El Carmen 06-09-2026 04:45 1,3 92,8 0 0 115 0,6 970,4
15 El Carmen 06-09-2026 04:30 1,4 93 0 0 115 0,6 970,6
14 El Carmen 06-09-2026 04:15 0,7 92,8 0 0 115 0,6 970,7
13 El Carmen 06-09-2026 04:00 1,3 92,4 0 0 115 0,6 970,9
12 El Carmen 06-09-2026 03:45 1,8 92,2 0 0 115 0,6 971,1
11 El Carmen 06-09-2026 03:30 2 92 0 0 115 0,6 971,3
10 El Carmen 06-09-2026 03:15 2,1 92,7 0 0 115 0,6 971,6
9 El Carmen 06-09-2026 03:00 1,3 92 0 0 115 0,6 971,6
8 El Carmen 06-09-2026 02:45 2,6 90,6 0 0 115 0,6 971,7
7 El Carmen 06-09-2026 02:30 2,5 90,8 0 0 115 0,6 972,1
6 El Carmen 06-09-2026 02:15 2,7 90,5 0 0 115 0,6 972,3
5 El Carmen 06-09-2026 02:00 2,9 90,3 0 0 115 0,6 972,3
4 El Carmen 06-09-2026 01:45 3,3 88,4 0 0 115 0,6 972,3
3 El Carmen 06-09-2026 01:30 3,5 88,7 0 0 115 0,6 972,4
2 El Carmen 06-09-2026 01:15 4,1 87,1 0 0 115 0,6 972,5
1 El Carmen 06-09-2026 01:00 4,3 86,3 0 0 114 0,6 972,7